sensor_id;sensor_type;location;lat;lon;timestamp;pressure;altitude;pressure_sealevel;temperature;humidity
49341;BME280;35209;51.050;13.678;2023-04-21T00:01:56;100091.19;;;5.90;100.00
49341;BME280;35209;51.050;13.678;2023-04-21T00:06:59;100083.38;;;5.89;100.00
49341;BME280;35209;51.050;13.678;2023-04-21T00:12:04;100086.09;;;5.81;100.00
49341;BME280;35209;51.050;13.678;2023-04-21T00:17:05;100078.59;;;5.50;100.00
49341;BME280;35209;51.050;13.678;2023-04-21T00:22:07;100075.19;;;5.42;100.00
49341;BME280;35209;51.050;13.678;2023-04-21T00:27:15;100081.53;;;5.18;100.00
49341;BME280;35209;51.050;13.678;2023-04-21T00:32:17;100077.28;;;5.03;100.00
49341;BME280;35209;51.050;13.678;2023-04-21T00:37:19;100073.84;;;5.01;100.00
49341;BME280;35209;51.050;13.678;2023-04-21T00:42:21;100083.13;;;5.31;100.00
49341;BME280;35209;51.050;13.678;2023-04-21T00:47:23;100066.88;;;5.05;100.00
49341;BME280;35209;51.050;13.678;2023-04-21T00:52:25;100070.59;;;4.72;100.00
49341;BME280;35209;51.050;13.678;2023-04-21T00:57:27;100068.53;;;5.14;100.00
49341;BME280;35209;51.050;13.678;2023-04-21T01:02:30;100066.69;;;5.25;100.00
49341;BME280;35209;51.050;13.678;2023-04-21T01:07:32;100060.84;;;4.98;100.00
49341;BME280;35209;51.050;13.678;2023-04-21T01:12:41;100061.66;;;5.06;100.00
49341;BME280;35209;51.050;13.678;2023-04-21T01:17:44;100063.69;;;4.68;100.00
49341;BME280;35209;51.050;13.678;2023-04-21T01:22:47;100058.59;;;4.51;100.00
49341;BME280;35209;51.050;13.678;2023-04-21T01:27:51;100054.34;;;4.41;100.00
49341;BME280;35209;51.050;13.678;2023-04-21T01:32:55;100061.31;;;4.33;100.00
49341;BME280;35209;51.050;13.678;2023-04-21T01:37:59;100056.81;;;4.61;100.00
49341;BME280;35209;51.050;13.678;2023-04-21T01:43:02;100056.84;;;4.54;100.00
49341;BME280;35209;51.050;13.678;2023-04-21T01:48:04;100045.66;;;4.42;100.00
49341;BME280;35209;51.050;13.678;2023-04-21T01:53:06;100041.09;;;4.71;100.00
49341;BME280;35209;51.050;13.678;2023-04-21T01:58:08;100038.66;;;4.50;100.00
49341;BME280;35209;51.050;13.678;2023-04-21T02:03:10;100044.66;;;4.60;100.00
49341;BME280;35209;51.050;13.678;2023-04-21T02:08:12;100036.06;;;4.48;100.00
49341;BME280;35209;51.050;13.678;2023-04-21T02:13:15;100042.34;;;4.14;100.00
49341;BME280;35209;51.050;13.678;2023-04-21T02:18:16;100033.66;;;4.18;100.00
49341;BME280;35209;51.050;13.678;2023-04-21T02:23:18;100035.25;;;4.37;100.00
49341;BME280;35209;51.050;13.678;2023-04-21T02:28:21;100030.09;;;4.31;100.00
49341;BME280;35209;51.050;13.678;2023-04-21T02:33:22;100030.31;;;3.99;100.00
49341;BME280;35209;51.050;13.678;2023-04-21T02:38:24;100026.81;;;4.01;100.00
49341;BME280;35209;51.050;13.678;2023-04-21T02:43:26;100031.19;;;3.92;100.00
49341;BME280;35209;51.050;13.678;2023-04-21T02:48:29;100040.75;;;3.84;100.00
49341;BME280;35209;51.050;13.678;2023-04-21T02:53:31;100036.34;;;3.98;100.00
49341;BME280;35209;51.050;13.678;2023-04-21T02:58:33;100041.47;;;4.21;100.00
49341;BME280;35209;51.050;13.678;2023-04-21T03:03:34;100037.22;;;3.97;100.00
49341;BME280;35209;51.050;13.678;2023-04-21T03:08:37;100033.91;;;3.66;100.00
49341;BME280;35209;51.050;13.678;2023-04-21T03:13:39;100036.47;;;3.67;100.00
49341;BME280;35209;51.050;13.678;2023-04-21T03:18:41;100037.22;;;4.01;100.00
49341;BME280;35209;51.050;13.678;2023-04-21T03:23:45;100031.09;;;4.10;100.00
49341;BME280;35209;51.050;13.678;2023-04-21T03:28:47;100023.34;;;3.98;100.00
49341;BME280;35209;51.050;13.678;2023-04-21T03:33:49;100017.28;;;4.00;100.00
49341;BME280;35209;51.050;13.678;2023-04-21T03:38:50;100019.22;;;3.52;100.00
49341;BME280;35209;51.050;13.678;2023-04-21T03:43:52;100032.25;;;3.39;100.00
49341;BME280;35209;51.050;13.678;2023-04-21T03:48:54;100033.13;;;3.39;100.00
49341;BME280;35209;51.050;13.678;2023-04-21T03:53:55;100039.19;;;3.41;100.00
49341;BME280;35209;51.050;13.678;2023-04-21T03:58:57;100032.22;;;3.48;100.00
49341;BME280;35209;51.050;13.678;2023-04-21T04:03:59;100045.94;;;3.88;100.00
49341;BME280;35209;51.050;13.678;2023-04-21T04:09:02;100056.41;;;3.74;100.00
49341;BME280;35209;51.050;13.678;2023-04-21T04:14:05;100055.66;;;3.36;100.00
49341;BME280;35209;51.050;13.678;2023-04-21T04:19:07;100058.13;;;3.77;100.00
49341;BME280;35209;51.050;13.678;2023-04-21T04:24:08;100057.22;;;3.84;100.00
49341;BME280;35209;51.050;13.678;2023-04-21T04:29:12;100059.78;;;3.96;100.00
49341;BME280;35209;51.050;13.678;2023-04-21T04:34:14;100057.19;;;3.99;100.00
49341;BME280;35209;51.050;13.678;2023-04-21T04:39:16;100061.63;;;3.73;100.00
49341;BME280;35209;51.050;13.678;2023-04-21T04:44:18;100060.78;;;3.54;100.00
49341;BME280;35209;51.050;13.678;2023-04-21T04:49:20;100064.25;;;3.61;100.00
49341;BME280;35209;51.050;13.678;2023-04-21T04:54:24;100058.06;;;3.92;100.00
49341;BME280;35209;51.050;13.678;2023-04-21T04:59:26;100056.22;;;4.14;100.00
49341;BME280;35209;51.050;13.678;2023-04-21T05:04:30;100059.78;;;3.96;100.00
49341;BME280;35209;51.050;13.678;2023-04-21T05:09:33;100061.28;;;4.40;100.00
49341;BME280;35209;51.050;13.678;2023-04-21T05:14:35;100070.94;;;4.18;100.00
49341;BME280;35209;51.050;13.678;2023-04-21T05:19:36;100069.84;;;4.54;100.00
49341;BME280;35209;51.050;13.678;2023-04-21T05:24:40;100078.34;;;4.81;100.00
49341;BME280;35209;51.050;13.678;2023-04-21T05:29:42;100073.88;;;4.98;100.00
49341;BME280;35209;51.050;13.678;2023-04-21T05:34:43;100080.75;;;5.05;100.00
49341;BME280;35209;51.050;13.678;2023-04-21T05:39:45;100083.25;;;5.16;100.00
49341;BME280;35209;51.050;13.678;2023-04-21T05:44:47;100079.75;;;5.20;100.00
49341;BME280;35209;51.050;13.678;2023-04-21T05:49:52;100072.81;;;5.22;100.00
49341;BME280;35209;51.050;13.678;2023-04-21T05:54:54;100072.41;;;5.57;100.00
49341;BME280;35209;51.050;13.678;2023-04-21T05:59:56;100070.66;;;6.34;100.00
49341;BME280;35209;51.050;13.678;2023-04-21T06:04:57;100074.66;;;7.13;100.00
49341;BME280;35209;51.050;13.678;2023-04-21T06:10:00;100060.22;;;7.40;100.00
49341;BME280;35209;51.050;13.678;2023-04-21T06:15:01;100061.19;;;7.81;100.00
49341;BME280;35209;51.050;13.678;2023-04-21T06:20:04;100066.34;;;8.26;100.00
49341;BME280;35209;51.050;13.678;2023-04-21T06:25:06;100055.19;;;8.94;99.95
49341;BME280;35209;51.050;13.678;2023-04-21T06:30:08;100053.44;;;9.28;96.12
49341;BME280;35209;51.050;13.678;2023-04-21T06:35:10;100052.66;;;9.57;97.24
49341;BME280;35209;51.050;13.678;2023-04-21T06:40:11;100057.41;;;10.37;90.12
49341;BME280;35209;51.050;13.678;2023-04-21T06:45:16;100048.97;;;10.25;91.39
49341;BME280;35209;51.050;13.678;2023-04-21T06:50:18;100056.56;;;10.64;91.11
49341;BME280;35209;51.050;13.678;2023-04-21T06:55:20;100053.19;;;10.87;86.15
49341;BME280;35209;51.050;13.678;2023-04-21T07:00:22;100051.78;;;11.53;77.81
49341;BME280;35209;51.050;13.678;2023-04-21T07:05:23;100044.38;;;11.40;86.45
49341;BME280;35209;51.050;13.678;2023-04-21T07:10:26;100042.38;;;11.96;76.01
49341;BME280;35209;51.050;13.678;2023-04-21T07:15:28;100041.00;;;12.09;79.01
49341;BME280;35209;51.050;13.678;2023-04-21T07:20:29;100048.22;;;12.50;74.59
49341;BME280;35209;51.050;13.678;2023-04-21T07:25:31;100036.63;;;12.76;71.29
49341;BME280;35209;51.050;13.678;2023-04-21T07:30:33;100038.50;;;12.94;74.54
49341;BME280;35209;51.050;13.678;2023-04-21T07:35:34;100028.56;;;13.21;67.92
49341;BME280;35209;51.050;13.678;2023-04-21T07:40:36;100029.44;;;13.22;67.99
49341;BME280;35209;51.050;13.678;2023-04-21T07:45:38;100028.34;;;13.48;67.45
49341;BME280;35209;51.050;13.678;2023-04-21T07:50:40;100012.53;;;13.67;70.55
49341;BME280;35209;51.050;13.678;2023-04-21T07:55:43;100021.72;;;14.16;64.75
49341;BME280;35209;51.050;13.678;2023-04-21T08:00:44;100017.56;;;14.29;60.46
49341;BME280;35209;51.050;13.678;2023-04-21T08:05:46;100014.13;;;14.46;61.88
49341;BME280;35209;51.050;13.678;2023-04-21T08:10:48;100019.44;;;14.82;59.71
49341;BME280;35209;51.050;13.678;2023-04-21T08:15:51;100010.66;;;15.17;58.64
49341;BME280;35209;51.050;13.678;2023-04-21T08:20:53;100015.34;;;15.29;56.57
49341;BME280;35209;51.050;13.678;2023-04-21T08:25:57;100005.59;;;15.80;54.43
49341;BME280;35209;51.050;13.678;2023-04-21T08:30:59;100011.59;;;15.83;53.49
49341;BME280;35209;51.050;13.678;2023-04-21T08:36:02;99993.84;;;16.33;50.92
49341;BME280;35209;51.050;13.678;2023-04-21T08:41:19;99994.94;;;16.76;48.53
49341;BME280;35209;51.050;13.678;2023-04-21T08:46:23;99991.19;;;17.10;47.39
49341;BME280;35209;51.050;13.678;2023-04-21T08:51:26;99977.00;;;17.54;45.40
49341;BME280;35209;51.050;13.678;2023-04-21T08:56:31;99984.63;;;17.75;43.97
49341;BME280;35209;51.050;13.678;2023-04-21T09:07:07;99976.28;;;17.81;39.98
49341;BME280;35209;51.050;13.678;2023-04-21T09:12:09;99987.53;;;18.13;38.83
49341;BME280;35209;51.050;13.678;2023-04-21T09:17:11;99973.53;;;18.38;37.33
49341;BME280;35209;51.050;13.678;2023-04-21T09:22:16;99968.69;;;18.84;40.31
49341;BME280;35209;51.050;13.678;2023-04-21T09:27:18;99971.28;;;18.99;37.58
49341;BME280;35209;51.050;13.678;2023-04-21T09:32:21;99979.84;;;19.42;35.82
49341;BME280;35209;51.050;13.678;2023-04-21T09:37:23;99972.09;;;19.39;36.23
49341;BME280;35209;51.050;13.678;2023-04-21T09:42:29;99955.75;;;19.82;36.46
49341;BME280;35209;51.050;13.678;2023-04-21T09:47:36;99952.28;;;20.42;33.91
49341;BME280;35209;51.050;13.678;2023-04-21T09:52:42;99949.19;;;20.35;33.83
49341;BME280;35209;51.050;13.678;2023-04-21T09:57:46;99947.97;;;20.28;33.58
49341;BME280;35209;51.050;13.678;2023-04-21T10:02:50;99948.19;;;20.49;32.96
49341;BME280;35209;51.050;13.678;2023-04-21T10:07:52;99941.69;;;20.40;32.95
49341;BME280;35209;51.050;13.678;2023-04-21T10:12:54;99934.16;;;20.58;32.69
49341;BME280;35209;51.050;13.678;2023-04-21T10:23:25;99915.00;;;21.00;29.77
49341;BME280;35209;51.050;13.678;2023-04-21T10:39:42;99917.81;;;21.09;30.00
49341;BME280;35209;51.050;13.678;2023-04-21T10:45:08;99912.59;;;21.08;30.59
49341;BME280;35209;51.050;13.678;2023-04-21T10:50:19;99910.97;;;21.40;31.83
49341;BME280;35209;51.050;13.678;2023-04-21T10:55:23;99905.84;;;21.37;31.14
49341;BME280;35209;51.050;13.678;2023-04-21T11:00:26;99911.19;;;21.37;31.75
49341;BME280;35209;51.050;13.678;2023-04-21T11:05:35;99899.00;;;21.22;30.59
49341;BME280;35209;51.050;13.678;2023-04-21T11:10:44;99904.25;;;21.69;29.91
49341;BME280;35209;51.050;13.678;2023-04-21T11:16:01;99894.13;;;21.16;30.24
49341;BME280;35209;51.050;13.678;2023-04-21T11:21:09;99900.28;;;21.52;29.01
49341;BME280;35209;51.050;13.678;2023-04-21T11:26:12;99883.75;;;20.89;29.59
49341;BME280;35209;51.050;13.678;2023-04-21T11:31:14;99887.50;;;21.44;31.40
49341;BME280;35209;51.050;13.678;2023-04-21T11:36:20;99870.88;;;22.06;29.66
49341;BME280;35209;51.050;13.678;2023-04-21T11:41:22;99894.31;;;21.37;29.01
49341;BME280;35209;51.050;13.678;2023-04-21T11:46:26;99877.28;;;20.45;31.90
49341;BME280;35209;51.050;13.678;2023-04-21T11:51:38;99887.53;;;20.86;32.47
49341;BME280;35209;51.050;13.678;2023-04-21T11:56:42;99873.44;;;20.84;30.79
49341;BME280;35209;51.050;13.678;2023-04-21T12:01:45;99879.03;;;20.92;33.04
49341;BME280;35209;51.050;13.678;2023-04-21T12:06:58;99871.22;;;20.78;31.46
49341;BME280;35209;51.050;13.678;2023-04-21T12:12:02;99868.25;;;21.28;31.28
49341;BME280;35209;51.050;13.678;2023-04-21T12:17:06;99870.41;;;22.01;31.28
49341;BME280;35209;51.050;13.678;2023-04-21T12:22:13;99866.59;;;21.60;29.50
49341;BME280;35209;51.050;13.678;2023-04-21T12:27:15;99867.66;;;21.80;31.28
49341;BME280;35209;51.050;13.678;2023-04-21T12:32:17;99865.47;;;21.29;29.75
49341;BME280;35209;51.050;13.678;2023-04-21T12:37:18;99850.13;;;20.98;32.99
49341;BME280;35209;51.050;13.678;2023-04-21T12:42:20;99848.94;;;21.24;31.96
49341;BME280;35209;51.050;13.678;2023-04-21T12:47:22;99846.19;;;21.37;30.34
49341;BME280;35209;51.050;13.678;2023-04-21T12:52:24;99850.69;;;21.36;30.24
49341;BME280;35209;51.050;13.678;2023-04-21T12:57:27;99854.94;;;21.39;30.66
49341;BME280;35209;51.050;13.678;2023-04-21T13:02:29;99836.34;;;21.37;30.19
49341;BME280;35209;51.050;13.678;2023-04-21T13:07:38;99836.94;;;21.52;30.88
49341;BME280;35209;51.050;13.678;2023-04-21T13:12:40;99826.00;;;21.44;29.55
49341;BME280;35209;51.050;13.678;2023-04-21T13:17:43;99829.16;;;21.60;31.28
49341;BME280;35209;51.050;13.678;2023-04-21T13:22:44;99824.75;;;21.59;29.28
49341;BME280;35209;51.050;13.678;2023-04-21T13:27:47;99816.97;;;21.67;29.56
49341;BME280;35209;51.050;13.678;2023-04-21T13:32:48;99806.19;;;22.01;32.25
49341;BME280;35209;51.050;13.678;2023-04-21T13:37:51;99818.66;;;21.69;28.51
49341;BME280;35209;51.050;13.678;2023-04-21T13:42:52;99797.31;;;20.90;30.17
49341;BME280;35209;51.050;13.678;2023-04-21T13:47:54;99782.84;;;20.81;28.25
49341;BME280;35209;51.050;13.678;2023-04-21T13:52:58;99785.50;;;20.59;30.44
49341;BME280;35209;51.050;13.678;2023-04-21T13:58:00;99781.50;;;20.64;29.74
49341;BME280;35209;51.050;13.678;2023-04-21T14:03:03;99783.22;;;20.99;29.17
49341;BME280;35209;51.050;13.678;2023-04-21T14:08:06;99767.78;;;21.03;30.09
49341;BME280;35209;51.050;13.678;2023-04-21T14:13:08;99758.06;;;21.13;29.50
49341;BME280;35209;51.050;13.678;2023-04-21T14:18:27;99758.94;;;21.36;30.19
49341;BME280;35209;51.050;13.678;2023-04-21T14:23:29;99767.78;;;21.48;29.26
49341;BME280;35209;51.050;13.678;2023-04-21T14:28:31;99759.16;;;21.10;31.25
49341;BME280;35209;51.050;13.678;2023-04-21T14:33:33;99750.91;;;20.69;30.61
49341;BME280;35209;51.050;13.678;2023-04-21T14:38:35;99743.97;;;20.55;32.45
49341;BME280;35209;51.050;13.678;2023-04-21T14:43:37;99735.78;;;20.45;31.18
49341;BME280;35209;51.050;13.678;2023-04-21T14:48:39;99729.84;;;20.41;32.03
49341;BME280;35209;51.050;13.678;2023-04-21T14:53:43;99727.34;;;20.62;30.87
49341;BME280;35209;51.050;13.678;2023-04-21T14:58:45;99735.19;;;20.41;31.92
49341;BME280;35209;51.050;13.678;2023-04-21T15:03:47;99727.47;;;20.50;32.00
49341;BME280;35209;51.050;13.678;2023-04-21T15:08:49;99724.19;;;20.57;31.12
49341;BME280;35209;51.050;13.678;2023-04-21T15:13:51;99724.53;;;20.53;32.30
49341;BME280;35209;51.050;13.678;2023-04-21T15:18:52;99710.41;;;20.39;31.61
49341;BME280;35209;51.050;13.678;2023-04-21T15:23:55;99709.38;;;20.53;31.44
49341;BME280;35209;51.050;13.678;2023-04-21T15:28:57;99716.00;;;20.36;32.96
49341;BME280;35209;51.050;13.678;2023-04-21T15:33:59;99710.19;;;19.96;34.08
49341;BME280;35209;51.050;13.678;2023-04-21T15:39:01;99699.84;;;19.80;34.17
49341;BME280;35209;51.050;13.678;2023-04-21T15:44:03;99702.56;;;19.68;34.71
49341;BME280;35209;51.050;13.678;2023-04-21T15:49:05;99688.53;;;19.77;35.51
49341;BME280;35209;51.050;13.678;2023-04-21T15:54:08;99695.97;;;19.84;36.14
49341;BME280;35209;51.050;13.678;2023-04-21T15:59:10;99692.25;;;19.63;35.76
49341;BME280;35209;51.050;13.678;2023-04-21T16:04:12;99687.84;;;19.38;35.90
49341;BME280;35209;51.050;13.678;2023-04-21T16:09:14;99691.47;;;19.13;36.57
49341;BME280;35209;51.050;13.678;2023-04-21T16:14:17;99697.13;;;19.08;36.96
49341;BME280;35209;51.050;13.678;2023-04-21T16:19:19;99690.66;;;19.00;37.01
49341;BME280;35209;51.050;13.678;2023-04-21T16:24:21;99678.34;;;18.73;37.44
49341;BME280;35209;51.050;13.678;2023-04-21T16:29:23;99676.09;;;18.54;38.10
49341;BME280;35209;51.050;13.678;2023-04-21T16:34:25;99679.72;;;18.53;38.52
49341;BME280;35209;51.050;13.678;2023-04-21T16:39:27;99686.31;;;18.48;38.52
49341;BME280;35209;51.050;13.678;2023-04-21T16:44:29;99678.78;;;18.16;39.45
49341;BME280;35209;51.050;13.678;2023-04-21T16:49:31;99672.69;;;18.27;38.25
49341;BME280;35209;51.050;13.678;2023-04-21T16:54:33;99668.22;;;18.14;39.74
49341;BME280;35209;51.050;13.678;2023-04-21T16:59:35;99671.53;;;18.18;39.24
49341;BME280;35209;51.050;13.678;2023-04-21T17:04:37;99669.38;;;18.10;39.48
49341;BME280;35209;51.050;13.678;2023-04-21T17:09:40;99664.50;;;18.04;38.20
49341;BME280;35209;51.050;13.678;2023-04-21T17:14:42;99666.09;;;17.94;38.78
49341;BME280;35209;51.050;13.678;2023-04-21T17:19:45;99669.13;;;17.88;39.51
49341;BME280;35209;51.050;13.678;2023-04-21T17:24:47;99666.06;;;17.81;39.74
49341;BME280;35209;51.050;13.678;2023-04-21T17:29:54;99663.53;;;17.80;39.81
49341;BME280;35209;51.050;13.678;2023-04-21T17:34:57;99666.97;;;17.68;40.45
49341;BME280;35209;51.050;13.678;2023-04-21T17:39:58;99668.38;;;17.46;40.75
49341;BME280;35209;51.050;13.678;2023-04-21T17:45:04;99665.22;;;17.54;41.16
49341;BME280;35209;51.050;13.678;2023-04-21T17:50:08;99667.28;;;17.36;41.86
49341;BME280;35209;51.050;13.678;2023-04-21T17:55:12;99668.22;;;17.08;42.76
49341;BME280;35209;51.050;13.678;2023-04-21T18:00:16;99675.19;;;16.82;42.89
49341;BME280;35209;51.050;13.678;2023-04-21T18:05:18;99683.44;;;16.92;42.57
49341;BME280;35209;51.050;13.678;2023-04-21T18:10:20;99680.31;;;16.56;43.27
49341;BME280;35209;51.050;13.678;2023-04-21T18:15:23;99682.31;;;16.38;43.73
49341;BME280;35209;51.050;13.678;2023-04-21T18:20:25;99689.03;;;16.44;43.67
49341;BME280;35209;51.050;13.678;2023-04-21T18:25:26;99697.75;;;16.02;44.19
49341;BME280;35209;51.050;13.678;2023-04-21T18:30:43;99693.28;;;15.88;44.34
49341;BME280;35209;51.050;13.678;2023-04-21T18:35:45;99687.22;;;15.86;44.71
49341;BME280;35209;51.050;13.678;2023-04-21T18:40:47;99695.75;;;15.91;44.17
49341;BME280;35209;51.050;13.678;2023-04-21T18:45:49;99695.81;;;15.44;45.13
49341;BME280;35209;51.050;13.678;2023-04-21T18:50:50;99701.75;;;15.33;46.33
49341;BME280;35209;51.050;13.678;2023-04-21T18:55:52;99697.13;;;15.21;45.05
49341;BME280;35209;51.050;13.678;2023-04-21T19:00:54;99703.09;;;15.08;46.61
49341;BME280;35209;51.050;13.678;2023-04-21T19:05:56;99696.19;;;14.90;47.58
49341;BME280;35209;51.050;13.678;2023-04-21T19:10:58;99699.00;;;14.87;47.29
49341;BME280;35209;51.050;13.678;2023-04-21T19:16:00;99701.72;;;14.85;49.44
49341;BME280;35209;51.050;13.678;2023-04-21T19:21:02;99696.34;;;14.71;47.78
49341;BME280;35209;51.050;13.678;2023-04-21T19:26:05;99692.94;;;14.85;46.88
49341;BME280;35209;51.050;13.678;2023-04-21T19:31:09;99701.88;;;14.82;46.32
49341;BME280;35209;51.050;13.678;2023-04-21T19:36:10;99691.22;;;14.68;46.62
49341;BME280;35209;51.050;13.678;2023-04-21T19:41:12;99696.16;;;14.58;46.08
49341;BME280;35209;51.050;13.678;2023-04-21T19:46:14;99697.59;;;14.48;46.37
49341;BME280;35209;51.050;13.678;2023-04-21T19:51:16;99696.81;;;14.11;49.03
49341;BME280;35209;51.050;13.678;2023-04-21T19:56:17;99701.00;;;13.81;50.80
49341;BME280;35209;51.050;13.678;2023-04-21T20:01:19;99697.59;;;13.61;53.56
49341;BME280;35209;51.050;13.678;2023-04-21T20:06:21;99692.09;;;13.30;55.57
49341;BME280;35209;51.050;13.678;2023-04-21T20:11:23;99692.53;;;13.21;58.22
49341;BME280;35209;51.050;13.678;2023-04-21T20:16:29;99699.09;;;13.12;59.78
49341;BME280;35209;51.050;13.678;2023-04-21T20:21:32;99704.66;;;12.87;59.69
49341;BME280;35209;51.050;13.678;2023-04-21T20:26:34;99716.59;;;12.56;61.81
49341;BME280;35209;51.050;13.678;2023-04-21T20:31:36;99710.56;;;12.34;61.32
49341;BME280;35209;51.050;13.678;2023-04-21T20:36:38;99712.97;;;12.40;63.77
49341;BME280;35209;51.050;13.678;2023-04-21T20:41:39;99707.81;;;12.17;63.30
49341;BME280;35209;51.050;13.678;2023-04-21T20:46:59;99712.31;;;12.15;65.62
49341;BME280;35209;51.050;13.678;2023-04-21T20:52:01;99714.09;;;11.94;66.61
49341;BME280;35209;51.050;13.678;2023-04-21T20:57:03;99711.34;;;11.75;67.37
49341;BME280;35209;51.050;13.678;2023-04-21T21:02:07;99713.63;;;11.62;68.06
49341;BME280;35209;51.050;13.678;2023-04-21T21:07:10;99719.63;;;11.66;69.34
49341;BME280;35209;51.050;13.678;2023-04-21T21:12:14;99719.56;;;11.45;69.60
49341;BME280;35209;51.050;13.678;2023-04-21T21:17:16;99723.25;;;11.41;68.93
49341;BME280;35209;51.050;13.678;2023-04-21T21:22:18;99720.91;;;11.11;68.75
49341;BME280;35209;51.050;13.678;2023-04-21T21:27:28;99721.94;;;11.07;70.91
49341;BME280;35209;51.050;13.678;2023-04-21T21:32:30;99728.09;;;11.06;70.66
49341;BME280;35209;51.050;13.678;2023-04-21T21:37:33;99735.16;;;10.82;71.47
49341;BME280;35209;51.050;13.678;2023-04-21T21:42:36;99743.34;;;10.75;72.20
49341;BME280;35209;51.050;13.678;2023-04-21T21:47:38;99745.50;;;10.87;73.65
49341;BME280;35209;51.050;13.678;2023-04-21T21:52:45;99747.47;;;10.82;74.02
49341;BME280;35209;51.050;13.678;2023-04-21T21:57:47;99743.00;;;10.60;75.10
49341;BME280;35209;51.050;13.678;2023-04-21T22:02:49;99738.31;;;10.45;74.98
49341;BME280;35209;51.050;13.678;2023-04-21T22:07:51;99745.88;;;10.53;75.90
49341;BME280;35209;51.050;13.678;2023-04-21T22:12:54;99763.50;;;10.74;73.46
49341;BME280;35209;51.050;13.678;2023-04-21T22:17:55;99754.09;;;10.44;74.45
49341;BME280;35209;51.050;13.678;2023-04-21T22:23:01;99753.19;;;10.20;75.29
49341;BME280;35209;51.050;13.678;2023-04-21T22:28:03;99750.19;;;10.30;76.28
49341;BME280;35209;51.050;13.678;2023-04-21T22:33:05;99760.53;;;10.35;72.39
49341;BME280;35209;51.050;13.678;2023-04-21T22:38:07;99761.06;;;10.20;71.75
49341;BME280;35209;51.050;13.678;2023-04-21T22:43:09;99761.47;;;9.81;74.58
49341;BME280;35209;51.050;13.678;2023-04-21T22:48:11;99759.88;;;9.77;76.59
49341;BME280;35209;51.050;13.678;2023-04-21T22:53:15;99765.50;;;9.91;76.07
49341;BME280;35209;51.050;13.678;2023-04-21T22:58:17;99775.31;;;9.86;74.74
49341;BME280;35209;51.050;13.678;2023-04-21T23:03:19;99771.34;;;9.46;77.56
49341;BME280;35209;51.050;13.678;2023-04-21T23:08:21;99776.22;;;9.30;79.69
49341;BME280;35209;51.050;13.678;2023-04-21T23:13:23;99779.69;;;9.31;79.97
49341;BME280;35209;51.050;13.678;2023-04-21T23:18:24;99773.75;;;9.26;81.06
49341;BME280;35209;51.050;13.678;2023-04-21T23:23:26;99776.03;;;9.37;78.00
49341;BME280;35209;51.050;13.678;2023-04-21T23:28:28;99780.06;;;9.19;79.12
49341;BME280;35209;51.050;13.678;2023-04-21T23:33:29;99780.16;;;8.86;82.56
49341;BME280;35209;51.050;13.678;2023-04-21T23:38:31;99772.97;;;8.93;81.52
49341;BME280;35209;51.050;13.678;2023-04-21T23:43:33;99769.97;;;8.75;82.17
49341;BME280;35209;51.050;13.678;2023-04-21T23:48:37;99768.47;;;8.67;83.20
49341;BME280;35209;51.050;13.678;2023-04-21T23:53:39;99769.06;;;8.76;83.12
49341;BME280;35209;51.050;13.678;2023-04-21T23:58:41;99761.13;;;8.79;81.84
